Terminal Aerodrome Forecast
Issued by NWS

Home | Current Version | Previous Version | Graphics & Text | Print | Product List | Glossary Off
Versions: 1 2 3 4 5 6 7 8 9 10 11 12 13 14 15 16 17 18 19 20 21 22

000
FTUS43 KLSX 211740 AAC
TAFSUS
TAF AMD
KSUS 211740Z 2118/2218 VRB03KT P6SM BKN010
     FM211900 01004KT P6SM BKN035
     FM220900 00000KT 3/4SM BR FEW080
     FM221100 00000KT 1/2SM FG FEW015
     FM221500 VRB03KT 3SM BR BKN015
     FM221700 21005KT P6SM FEW120=

USA.gov is the U.S. government's official web portal to all federal, state and local government web resources and services.